Date,TemperatureHighF,TemperatureAvgF,TemperatureLowF,DewpointHighF,DewpointAvgF,DewpointLowF,HumidityHigh,HumidityAvg,HumidityLow,PressureMaxIn,PressureMinIn,WindSpeedMaxMPH,WindSpeedAvgMPH,GustSpeedMaxMPH,PrecipitationSumIn
2012-12-1,26.0,21.3,17.5,24.0,16.7,8.0,93,82,65,30.68,30.53,5,2,0,0.00
2012-12-2,40.0,34.0,26.1,39.0,32.8,24.0,96,95,93,30.54,30.01,6,2,0,0.23
2012-12-3,47.7,40.5,31.3,46.0,37.3,30.0,97,88,76,30.30,30.00,6,1,0,0.00
2012-12-4,50.2,39.6,31.4,49.0,38.3,30.0,96,95,93,30.30,29.89,11,4,0,0.02
2012-12-5,50.9,39.8,26.3,50.0,33.5,18.0,96,79,62,30.19,29.83,16,4,0,0.23
2012-12-6,32.2,26.5,22.2,19.0,17.5,15.0,86,69,56,30.39,30.20,11,3,0,0.00
2012-12-7,34.4,29.5,23.2,31.0,24.3,19.0,94,81,67,30.29,30.07,7,2,0,0.00
2012-12-8,36.9,34.2,31.5,36.0,33.0,30.0,96,95,93,30.07,29.87,5,1,0,0.06
2012-12-9,41.1,36.2,31.5,38.0,29.5,22.0,96,78,52,30.31,29.97,8,2,0,0.00
2012-12-10,43.2,38.2,31.9,42.0,36.9,28.0,96,94,86,30.13,29.50,10,3,0,0.99
2012-12-11,39.7,33.0,25.8,37.0,29.0,20.0,94,85,71,30.18,29.61,7,1,0,0.01
2012-12-12,36.9,28.0,20.7,26.0,21.8,18.0,91,78,61,30.44,30.18,5,1,0,0.01
2012-12-13,37.8,27.8,19.2,28.0,23.0,17.0,93,83,61,30.50,30.30,4,0,0,0.00
2012-12-14,41.5,31.2,19.3,29.0,24.6,17.0,93,78,57,30.29,30.11,8,1,0,0.00
2012-12-15,35.9,27.9,20.0,27.0,15.5,5.0,77,61,35,30.38,30.21,8,2,0,0.00
2012-12-16,24.8,22.6,19.5,22.0,17.3,12.0,92,80,69,30.36,30.14,8,3,0,0.00
2012-12-17,33.0,29.1,24.6,32.0,27.6,23.0,100,94,90,30.14,29.89,11,4,0,0.00
2012-12-18,35.5,33.9,32.2,35.0,32.9,31.0,100,96,95,29.86,29.48,5,1,0,0.80
2012-12-19,38.1,35.1,32.9,34.0,31.7,30.0,96,87,75,30.09,29.49,12,4,0,0.14
2012-12-20,33.7,32.8,30.9,30.0,27.7,26.0,87,81,78,30.24,30.00,9,2,0,0.00
2012-12-21,46.1,36.6,31.2,45.0,33.8,29.0,95,90,80,29.98,28.97,21,7,0,0.66
2012-12-22,35.5,28.4,21.2,30.0,22.6,16.0,90,79,66,29.67,29.14,10,2,0,0.00
2012-12-23,32.8,26.0,17.1,25.0,17.7,11.0,82,71,58,29.84,29.67,7,2,0,0.02
2012-12-24,32.1,26.2,21.9,25.0,17.4,14.0,81,69,56,30.09,29.83,10,2,0,0.00
2012-12-25,28.2,21.9,14.9,22.0,17.1,10.0,90,82,72,30.35,30.09,8,2,0,0.05
2012-12-26,23.7,16.8,6.7,20.0,11.2,3.0,87,79,67,30.42,30.05,5,1,0,0.00
2012-12-27,28.9,25.4,21.7,27.0,23.6,20.0,100,92,88,30.03,29.54,18,4,0,0.00
2012-12-28,30.2,23.9,16.1,24.0,19.9,14.0,91,85,76,30.07,29.76,10,3,0,0.02
2012-12-29,21.1,15.4,9.2,19.0,13.2,7.0,92,90,88,30.07,29.59,2,0,0,0.00
2012-12-30,22.0,18.3,12.3,20.0,11.0,5.0,93,74,62,30.07,29.58,19,3,0,0.00
2012-12-31,29.9,21.0,12.3,24.0,15.3,6.0,84,78,73,30.07,29.73,5,1,0,0.00